createdAt,value
2018-05-09T00:02:03.842Z,6.23
2018-05-09T00:04:30.079Z,5.00
2018-05-09T00:06:56.321Z,5.97
2018-05-09T00:09:23.297Z,4.57
2018-05-09T00:11:49.528Z,3.13
2018-05-09T00:14:15.789Z,4.97
2018-05-09T00:16:42.054Z,4.77
2018-05-09T00:19:08.329Z,6.30
2018-05-09T00:21:34.551Z,3.73
2018-05-09T00:24:00.790Z,6.30
2018-05-09T00:26:27.038Z,5.23
2018-05-09T00:28:53.259Z,5.17
2018-05-09T00:31:19.472Z,6.10
2018-05-09T00:33:45.692Z,8.57
2018-05-09T00:36:11.929Z,7.07
2018-05-09T00:38:39.158Z,6.43
2018-05-09T00:41:05.364Z,10.23
2018-05-09T00:43:31.604Z,6.27
2018-05-09T00:45:57.840Z,5.37
2018-05-09T00:48:24.122Z,6.20
2018-05-09T00:50:50.367Z,6.97
2018-05-09T00:53:16.671Z,4.70
2018-05-09T00:55:42.969Z,3.70
2018-05-09T00:58:09.472Z,6.43
2018-05-09T01:00:36.442Z,7.13
2018-05-09T01:03:03.503Z,8.13
2018-05-09T01:05:29.792Z,5.27
2018-05-09T01:07:56.763Z,4.73
2018-05-09T01:10:23.120Z,6.97
2018-05-09T01:12:49.389Z,7.57
2018-05-09T01:15:16.435Z,4.80
2018-05-09T01:17:43.424Z,6.77
2018-05-09T01:20:09.665Z,5.60
2018-05-09T01:22:35.930Z,5.40
2018-05-09T01:25:02.205Z,5.63
2018-05-09T01:27:28.464Z,3.90
2018-05-09T01:29:54.712Z,4.23
2018-05-09T01:32:21.020Z,6.20
2018-05-09T01:34:47.291Z,6.30
2018-05-09T01:37:13.596Z,6.13
2018-05-09T01:39:40.597Z,5.37
2018-05-09T01:42:06.847Z,4.90
2018-05-09T01:44:33.868Z,7.63
2018-05-09T01:47:00.092Z,9.80
2018-05-09T01:49:26.363Z,7.47
2018-05-09T01:51:52.670Z,4.83
2018-05-09T01:54:18.933Z,10.47
2018-05-09T01:56:45.187Z,8.27
2018-05-09T01:59:11.456Z,8.53
2018-05-09T02:01:37.728Z,6.57
2018-05-09T02:04:04.765Z,6.60
2018-05-09T02:06:31.058Z,6.70
2018-05-09T02:08:57.387Z,9.53
2018-05-09T02:11:23.654Z,8.07
2018-05-09T02:13:50.095Z,9.47
2018-05-09T02:16:16.340Z,6.27
2018-05-09T02:18:42.610Z,6.70
2018-05-09T02:21:08.888Z,5.57
2018-05-09T02:23:35.167Z,6.87
2018-05-09T02:26:01.866Z,7.33
2018-05-09T02:28:28.117Z,8.57
2018-05-09T02:30:54.385Z,6.87
2018-05-09T02:33:20.656Z,9.20
2018-05-09T02:35:46.916Z,9.03
2018-05-09T02:38:13.198Z,8.23
2018-05-09T02:40:40.214Z,9.53
2018-05-09T02:43:06.433Z,7.63
2018-05-09T02:45:33.236Z,6.60
2018-05-09T02:47:59.580Z,6.83
2018-05-09T02:50:25.853Z,10.87
2018-05-09T02:52:52.813Z,9.57
2018-05-09T02:55:19.950Z,8.17
2018-05-09T02:57:46.152Z,11.13
2018-05-09T03:00:13.137Z,5.37
2018-05-09T03:02:39.408Z,7.97
2018-05-09T03:05:05.760Z,8.80
2018-05-09T03:07:32.069Z,8.13
2018-05-09T03:09:58.357Z,7.60
2018-05-09T03:12:25.349Z,8.97
2018-05-09T03:14:51.585Z,10.60
2018-05-09T03:17:17.957Z,8.43
2018-05-09T03:19:44.216Z,8.57
2018-05-09T03:22:10.521Z,9.47
2018-05-09T03:24:36.839Z,7.63
2018-05-09T03:27:03.847Z,13.90
2018-05-09T03:29:30.106Z,9.10
2018-05-09T03:31:57.087Z,7.93
2018-05-09T03:34:23.334Z,10.37
2018-05-09T03:36:49.611Z,9.43
2018-05-09T03:39:16.624Z,11.67
2018-05-09T03:41:42.894Z,7.93
2018-05-09T03:44:09.197Z,8.20
2018-05-09T03:46:36.242Z,7.77
2018-05-09T03:49:02.493Z,8.47
2018-05-09T03:51:28.761Z,7.63
2018-05-09T03:53:55.063Z,5.50
2018-05-09T03:56:21.324Z,9.47
2018-05-09T03:58:47.557Z,8.23
2018-05-09T04:01:13.824Z,8.77
2018-05-09T04:03:52.340Z,9.23
2018-05-09T04:06:30.950Z,9.23
2018-05-09T04:09:09.332Z,10.37
2018-05-09T04:11:35.539Z,11.43
2018-05-09T04:14:01.781Z,10.43
2018-05-09T04:16:28.016Z,6.90
2018-05-09T04:18:54.249Z,11.30
2018-05-09T04:21:20.501Z,9.90
2018-05-09T04:23:46.733Z,8.50
2018-05-09T04:26:12.961Z,8.20
2018-05-09T04:28:39.195Z,6.90
2018-05-09T04:31:05.439Z,10.97
2018-05-09T04:33:32.391Z,10.47
2018-05-09T04:35:58.642Z,6.93
2018-05-09T04:38:24.885Z,8.93
2018-05-09T04:40:51.169Z,7.50
2018-05-09T04:43:17.462Z,8.03
2018-05-09T04:45:43.783Z,6.47
2018-05-09T04:48:10.037Z,8.97
2018-05-09T04:50:37.017Z,5.87
2018-05-09T04:53:03.268Z,5.13
2018-05-09T04:55:29.610Z,7.20
2018-05-09T04:57:55.748Z,7.00
2018-05-09T05:00:22.039Z,7.30
2018-05-09T05:02:48.322Z,8.03
2018-05-09T05:05:14.564Z,8.20
2018-05-09T05:07:40.808Z,10.57
2018-05-09T05:10:07.768Z,6.80
2018-05-09T05:12:34.014Z,8.47
2018-05-09T05:15:00.283Z,5.67
2018-05-09T05:17:26.548Z,9.93
2018-05-09T05:19:52.853Z,8.43
2018-05-09T05:22:19.878Z,12.83
2018-05-09T05:24:46.081Z,7.50
2018-05-09T05:27:12.312Z,7.77
2018-05-09T05:29:38.516Z,11.30
2018-05-09T05:32:04.724Z,7.93
2018-05-09T05:34:31.663Z,8.13
2018-05-09T05:36:58.612Z,10.10
2018-05-09T05:39:25.557Z,6.80
2018-05-09T05:41:52.511Z,8.20
2018-05-09T05:44:18.720Z,6.83
2018-05-09T05:46:44.955Z,11.33
2018-05-09T05:49:11.940Z,11.10
2018-05-09T05:51:38.166Z,10.83
2018-05-09T05:54:04.425Z,9.83
2018-05-09T05:56:30.670Z,10.90
2018-05-09T05:58:56.927Z,8.57
2018-05-09T06:01:23.172Z,9.37
2018-05-09T06:03:49.394Z,10.70
2018-05-09T06:06:16.873Z,9.60
2018-05-09T06:08:44.648Z,9.27
2018-05-09T06:11:10.862Z,12.57
2018-05-09T06:13:37.885Z,9.80
2018-05-09T06:16:04.173Z,7.67
2018-05-09T06:18:31.143Z,7.40
2018-05-09T06:20:58.121Z,6.03
2018-05-09T06:23:24.370Z,9.43
2018-05-09T06:25:50.572Z,6.13
2018-05-09T06:28:16.790Z,9.77
2018-05-09T06:30:43.003Z,8.07
2018-05-09T06:33:09.963Z,10.83
2018-05-09T06:35:36.235Z,9.73
2018-05-09T06:38:02.445Z,9.80
2018-05-09T06:40:28.642Z,7.90
2018-05-09T06:42:54.854Z,11.73
2018-05-09T06:45:21.859Z,7.27
2018-05-09T06:47:48.201Z,10.17
2018-05-09T06:50:14.433Z,6.03
2018-05-09T06:52:40.761Z,8.03
2018-05-09T06:55:06.970Z,9.37
2018-05-09T06:57:33.179Z,9.73
2018-05-09T06:59:59.420Z,7.57
2018-05-09T07:02:25.681Z,8.53
2018-05-09T07:04:52.636Z,10.13
2018-05-09T07:07:19.606Z,7.47
2018-05-09T07:09:45.808Z,8.20
2018-05-09T07:12:12.870Z,7.97
2018-05-09T07:14:39.080Z,9.40
2018-05-09T07:17:06.069Z,13.53
2018-05-09T07:19:32.287Z,9.23
2018-05-09T07:21:58.521Z,11.40
2018-05-09T07:24:24.807Z,10.87
2018-05-09T07:26:51.833Z,8.60
2018-05-09T07:29:18.137Z,7.57
2018-05-09T07:31:44.485Z,6.20
2018-05-09T07:34:10.891Z,9.93
2018-05-09T07:36:37.802Z,6.65
2018-05-09T07:39:06.036Z,10.25
2018-05-09T07:41:33.584Z,13.55
2018-05-09T07:44:00.413Z,6.72
2018-05-09T07:46:26.680Z,5.90
2018-05-09T07:48:52.926Z,9.10
2018-05-09T07:51:19.980Z,9.80
2018-05-09T07:53:46.253Z,7.40
2018-05-09T07:56:12.452Z,12.00
2018-05-09T07:58:38.694Z,6.72
2018-05-09T08:01:04.928Z,5.87
2018-05-09T08:03:31.208Z,8.25
2018-05-09T08:05:57.435Z,9.57
2018-05-09T08:08:24.620Z,5.95
2018-05-09T08:10:50.872Z,8.35
2018-05-09T08:13:17.105Z,6.72
2018-05-09T08:15:43.589Z,10.75
2018-05-09T08:18:10.608Z,8.95
2018-05-09T08:20:36.841Z,7.87
2018-05-09T08:23:03.113Z,6.03
2018-05-09T08:25:29.314Z,7.47
2018-05-09T08:27:56.385Z,7.28
2018-05-09T08:30:22.844Z,7.95
2018-05-09T08:32:49.770Z,7.78
2018-05-09T08:35:15.975Z,12.40
2018-05-09T08:37:42.981Z,9.60
2018-05-09T08:40:09.256Z,10.27
2018-05-09T08:42:35.488Z,7.95
2018-05-09T08:45:01.808Z,6.97
2018-05-09T08:47:28.049Z,9.63
2018-05-09T08:49:54.280Z,14.80
2018-05-09T08:52:20.525Z,9.88
2018-05-09T08:54:46.761Z,13.35
2018-05-09T08:57:12.990Z,8.25
2018-05-09T08:59:40.035Z,8.27
2018-05-09T09:02:06.945Z,8.18
2018-05-09T09:04:33.232Z,6.82
2018-05-09T09:06:59.506Z,5.50
2018-05-09T09:09:26.002Z,7.97
2018-05-09T09:11:52.521Z,8.57
2018-05-09T09:14:18.745Z,8.13
2018-05-09T09:16:45.003Z,7.72
2018-05-09T09:19:11.977Z,6.72
2018-05-09T09:21:38.225Z,9.13
2018-05-09T09:24:04.502Z,7.87
2018-05-09T09:26:31.502Z,6.82
2018-05-09T09:28:57.745Z,6.30
2018-05-09T09:31:23.978Z,7.62
2018-05-09T09:33:50.349Z,7.93
2018-05-09T09:36:16.615Z,7.87
2018-05-09T09:38:42.843Z,6.97
2018-05-09T09:41:09.066Z,9.80
2018-05-09T09:43:35.315Z,7.28
2018-05-09T09:46:01.756Z,11.25
2018-05-09T09:48:27.988Z,6.50
2018-05-09T09:50:54.188Z,7.57
2018-05-09T09:53:20.434Z,10.63
2018-05-09T09:55:46.685Z,7.22
2018-05-09T09:58:12.888Z,7.80
2018-05-09T10:00:39.191Z,9.27
2018-05-09T10:03:05.396Z,8.57
2018-05-09T10:05:31.673Z,8.48
2018-05-09T10:07:57.914Z,5.87
2018-05-09T10:10:24.887Z,8.43
2018-05-09T10:12:51.831Z,5.32
2018-05-09T10:15:18.832Z,8.30
2018-05-09T10:17:45.094Z,5.90
2018-05-09T10:20:11.346Z,5.82
2018-05-09T10:22:37.587Z,6.37
2018-05-09T10:25:03.890Z,7.15
2018-05-09T10:27:30.129Z,7.70
2018-05-09T10:29:56.340Z,5.35
2018-05-09T10:32:23.333Z,5.20
2018-05-09T10:34:49.572Z,7.12
2018-05-09T10:39:56.812Z,6.35
2018-05-09T10:42:23.034Z,6.30
2018-05-09T10:44:49.265Z,6.60
2018-05-09T10:47:16.255Z,5.47
2018-05-09T10:49:42.489Z,6.25
2018-05-09T10:52:08.736Z,9.48
2018-05-09T10:54:35.011Z,4.57
2018-05-09T10:57:01.986Z,11.40
2018-05-09T10:59:28.700Z,7.50
2018-05-09T11:01:54.980Z,6.78
2018-05-09T11:04:21.247Z,5.45
2018-05-09T11:06:48.216Z,5.28
2018-05-09T11:09:14.441Z,6.70
2018-05-09T11:11:40.671Z,9.55
2018-05-09T11:14:06.894Z,6.00
2018-05-09T11:16:33.124Z,7.62
2018-05-09T11:18:59.564Z,9.55
2018-05-09T11:21:25.828Z,8.68
2018-05-09T11:25:19.497Z,8.70
2018-05-09T11:27:45.792Z,8.40
2018-05-09T11:30:12.028Z,5.30
2018-05-09T11:32:38.566Z,5.53
2018-05-09T11:35:04.841Z,8.07
2018-05-09T11:37:31.159Z,8.55
2018-05-09T11:39:58.092Z,8.10
2018-05-09T11:42:25.192Z,8.45
2018-05-09T11:44:51.504Z,5.05
2018-05-09T11:47:17.713Z,8.05
2018-05-09T11:49:43.929Z,6.15
2018-05-09T11:52:10.216Z,6.55
2018-05-09T11:54:36.461Z,7.05
2018-05-09T11:57:03.471Z,8.00
2018-05-09T11:59:30.505Z,5.43
2018-05-09T12:01:57.532Z,4.33
2018-05-09T12:04:24.640Z,5.40
2018-05-09T12:06:51.439Z,6.10
2018-05-09T12:09:18.456Z,3.60
2018-05-09T12:11:44.704Z,5.93
2018-05-09T12:14:10.979Z,5.07
2018-05-09T12:16:37.198Z,9.73
2018-05-09T12:19:03.431Z,7.77
2018-05-09T12:21:29.823Z,6.45
2018-05-09T12:23:56.846Z,7.00
2018-05-09T12:26:23.823Z,7.30
2018-05-09T12:28:50.974Z,11.83
2018-05-09T12:31:17.987Z,7.03
2018-05-09T12:33:44.281Z,5.17
2018-05-09T12:36:10.539Z,10.73
2018-05-09T12:38:37.229Z,14.37
2018-05-09T12:41:04.237Z,4.50
2018-05-09T12:43:30.704Z,7.33
2018-05-09T12:45:57.130Z,9.10
2018-05-09T12:48:24.102Z,6.80
2018-05-09T12:50:50.353Z,6.60
2018-05-09T12:53:16.596Z,7.83
2018-05-09T12:55:42.889Z,6.93
2018-05-09T12:58:09.131Z,7.33
2018-05-09T13:00:35.597Z,6.80
2018-05-09T13:03:02.637Z,6.30
2018-05-09T13:05:29.648Z,6.83
2018-05-09T13:07:55.890Z,8.37
2018-05-09T13:10:22.164Z,8.57
2018-05-09T13:12:49.133Z,6.40
2018-05-09T13:15:15.356Z,6.63
2018-05-09T13:17:41.643Z,5.27
2018-05-09T13:20:07.936Z,6.67
2018-05-09T13:22:34.174Z,6.17
2018-05-09T13:25:00.412Z,8.57
2018-05-09T13:27:27.978Z,5.77
2018-05-09T13:29:54.218Z,4.27
2018-05-09T13:32:20.448Z,7.77
2018-05-09T13:34:46.713Z,4.80
2018-05-09T13:37:13.011Z,4.77
2018-05-09T13:39:39.285Z,4.83
2018-05-09T13:42:05.561Z,3.93
2018-05-09T13:44:31.795Z,4.70
2018-05-09T13:46:58.134Z,6.80
2018-05-09T13:49:24.749Z,5.20
2018-05-09T13:51:51.778Z,5.37
2018-05-09T13:54:18.842Z,7.77
2018-05-09T13:56:45.081Z,6.77
2018-05-09T13:59:11.385Z,5.30
2018-05-09T14:01:37.656Z,5.63
2018-05-09T14:04:03.920Z,6.23
2018-05-09T14:06:30.186Z,7.93
2018-05-09T14:08:56.433Z,9.93
2018-05-09T14:11:22.651Z,5.80
2018-05-09T14:13:48.888Z,7.77
2018-05-09T14:16:15.884Z,6.03
2018-05-09T14:18:42.184Z,5.53
2018-05-09T14:21:09.166Z,6.27
2018-05-09T14:23:35.443Z,6.30
2018-05-09T14:26:02.441Z,9.30
2018-05-09T14:28:28.676Z,4.80
2018-05-09T14:30:54.965Z,7.70
2018-05-09T14:33:21.241Z,8.13
2018-05-09T14:35:47.487Z,8.30
2018-05-09T14:38:13.737Z,6.47
2018-05-09T14:40:40.760Z,6.87
2018-05-09T14:43:06.942Z,7.83
2018-05-09T14:45:33.299Z,6.30
2018-05-09T14:47:59.531Z,9.73
2018-05-09T14:50:25.768Z,9.87
2018-05-09T14:52:52.792Z,8.63
2018-05-09T14:55:18.999Z,9.40
2018-05-09T14:57:46.073Z,9.90
2018-05-09T15:00:13.229Z,10.03
2018-05-09T15:02:39.505Z,9.47
2018-05-09T15:05:06.486Z,8.97
2018-05-09T15:07:32.703Z,8.37
2018-05-09T15:09:58.948Z,6.50
2018-05-09T15:12:25.223Z,6.47
2018-05-09T15:14:52.333Z,8.43
2018-05-09T15:17:18.864Z,6.07
2018-05-09T15:19:45.117Z,5.97
2018-05-09T15:22:11.371Z,7.63
2018-05-09T15:24:38.332Z,7.00
2018-05-09T15:27:04.609Z,5.43
2018-05-09T15:29:30.841Z,6.93
2018-05-09T15:31:57.095Z,6.73
2018-05-09T15:34:24.076Z,10.03
2018-05-09T15:36:50.335Z,5.83
2018-05-09T15:39:16.576Z,6.53
2018-05-09T15:41:42.793Z,7.80
2018-05-09T15:44:09.075Z,5.93
2018-05-09T15:46:35.332Z,5.70
2018-05-09T15:49:01.591Z,5.53
2018-05-09T15:51:28.595Z,5.30
2018-05-09T15:53:54.836Z,8.03
2018-05-09T15:56:21.239Z,6.53
2018-05-09T15:58:47.465Z,7.83
2018-05-09T16:01:13.742Z,6.70
2018-05-09T16:03:39.995Z,11.37
2018-05-09T16:06:06.972Z,6.73
2018-05-09T16:08:33.220Z,6.33
2018-05-09T16:10:59.428Z,9.63
2018-05-09T16:13:25.696Z,6.50
2018-05-09T16:15:51.893Z,7.17
2018-05-09T16:18:18.164Z,7.53
2018-05-09T16:20:45.168Z,8.60
2018-05-09T16:23:11.441Z,6.97
2018-05-09T16:25:39.285Z,7.50
2018-05-09T16:28:05.488Z,7.70
2018-05-09T16:30:31.792Z,9.13
2018-05-09T16:32:58.741Z,8.83
2018-05-09T16:35:25.172Z,10.13
2018-05-09T16:37:51.436Z,7.93
2018-05-09T16:40:17.886Z,10.10
2018-05-09T16:42:44.169Z,8.40
2018-05-09T16:45:10.458Z,10.57
2018-05-09T16:47:36.736Z,7.80
2018-05-09T16:50:03.003Z,9.03
2018-05-09T16:52:29.222Z,8.13
2018-05-09T16:54:55.457Z,7.33
2018-05-09T16:57:21.721Z,9.17
2018-05-09T16:59:48.727Z,8.93
2018-05-09T17:02:15.020Z,11.60
2018-05-09T17:04:41.322Z,8.93
2018-05-09T17:07:08.276Z,11.17
2018-05-09T17:09:35.295Z,7.80
2018-05-09T17:12:01.569Z,7.37
2018-05-09T17:14:27.848Z,7.20
2018-05-09T17:16:54.199Z,10.57
2018-05-09T17:19:20.583Z,12.77
2018-05-09T17:22:05.464Z,12.40
2018-05-09T17:24:31.787Z,12.87
2018-05-09T17:26:58.011Z,12.07
2018-05-09T17:29:24.253Z,13.60
2018-05-09T17:31:50.527Z,9.93
2018-05-09T17:34:16.779Z,9.63
2018-05-09T17:36:43.076Z,14.17
2018-05-09T17:39:09.336Z,14.63
2018-05-09T17:41:35.619Z,12.40
2018-05-09T17:44:01.828Z,10.27
2018-05-09T17:46:28.133Z,11.37
2018-05-09T17:48:54.459Z,11.73
2018-05-09T17:51:20.693Z,10.23
2018-05-09T17:53:46.945Z,10.90
2018-05-09T17:56:13.471Z,13.00
2018-05-09T17:58:39.776Z,11.73
2018-05-09T18:01:06.041Z,9.70
2018-05-09T18:03:32.480Z,11.37
2018-05-09T18:05:59.467Z,10.53
2018-05-09T18:08:25.696Z,10.03
2018-05-09T18:10:52.196Z,7.67
2018-05-09T18:13:19.273Z,7.13
2018-05-09T18:15:45.601Z,9.87
2018-05-09T18:18:11.945Z,8.33
2018-05-09T18:20:38.171Z,10.43
2018-05-09T18:23:05.014Z,12.07
2018-05-09T18:25:31.536Z,8.73
2018-05-09T18:27:57.825Z,11.37
2018-05-09T18:30:24.097Z,7.97
2018-05-09T18:32:50.334Z,15.63
2018-05-09T18:35:16.559Z,9.80
2018-05-09T18:37:42.848Z,13.00
2018-05-09T18:40:09.181Z,9.23
2018-05-09T18:42:35.543Z,10.50
2018-05-09T18:45:01.873Z,10.67
2018-05-09T18:47:28.928Z,9.60
2018-05-09T18:49:55.192Z,11.40
2018-05-09T18:52:21.473Z,13.77
2018-05-09T18:54:47.687Z,10.70
2018-05-09T18:57:15.450Z,8.27
2018-05-09T18:59:41.792Z,10.13
2018-05-09T19:02:08.785Z,10.40
2018-05-09T19:04:35.163Z,9.57
2018-05-09T19:07:01.542Z,12.20
2018-05-09T19:09:27.849Z,12.43
2018-05-09T19:11:54.103Z,11.57
2018-05-09T19:14:20.636Z,8.67
2018-05-09T19:16:47.098Z,6.73
2018-05-09T19:19:13.429Z,7.67
2018-05-09T19:21:39.866Z,6.77
2018-05-09T19:24:06.923Z,6.47
2018-05-09T19:26:33.206Z,9.67
2018-05-09T19:28:59.570Z,8.50
2018-05-09T19:31:26.513Z,10.07
2018-05-09T19:33:52.751Z,18.23
2018-05-09T19:36:19.093Z,11.93
2018-05-09T19:38:45.448Z,15.03
2018-05-09T19:41:11.821Z,23.23
2018-05-09T19:43:38.072Z,15.37
2018-05-09T19:46:04.302Z,24.70
2018-05-09T19:48:30.587Z,26.80
2018-05-09T19:50:56.940Z,31.77
2018-05-09T19:53:23.180Z,24.20
2018-05-09T19:55:50.194Z,27.20
2018-05-09T19:58:16.682Z,25.67
2018-05-09T20:00:43.059Z,29.73
2018-05-09T20:03:09.347Z,27.50
2018-05-09T20:05:38.593Z,29.07
2018-05-09T20:08:11.136Z,33.03
2018-05-09T20:10:37.391Z,25.87
2018-05-09T20:13:03.678Z,33.50
2018-05-09T20:15:35.982Z,25.60
2018-05-09T20:18:03.045Z,26.73
2018-05-09T20:20:29.321Z,24.07
2018-05-09T20:22:55.585Z,26.43
2018-05-09T20:25:22.032Z,21.93
2018-05-09T20:27:48.354Z,24.83
2018-05-09T20:30:21.147Z,28.93
2018-05-09T20:32:48.204Z,26.27
2018-05-09T20:35:14.516Z,24.63
2018-05-09T20:37:40.818Z,23.23
2018-05-09T20:40:07.048Z,25.87
2018-05-09T20:42:33.293Z,29.53
2018-05-09T20:44:59.521Z,22.93
2018-05-09T20:47:25.927Z,23.50
2018-05-09T20:49:52.298Z,24.23
2018-05-09T20:52:20.051Z,25.53
2018-05-09T20:54:46.268Z,21.93
2018-05-09T20:57:12.529Z,23.83
2018-05-09T20:59:38.739Z,26.97
2018-05-09T21:02:05.006Z,26.53
2018-05-09T21:04:31.287Z,25.97
2018-05-09T21:07:00.166Z,25.87
2018-05-09T21:09:26.507Z,27.90
2018-05-09T21:12:04.884Z,31.40
2018-05-09T21:14:31.211Z,26.57
2018-05-09T21:16:57.470Z,32.63
2018-05-09T21:19:23.729Z,27.20
2018-05-09T21:21:50.788Z,25.73
2018-05-09T21:24:17.805Z,30.80
2018-05-09T21:26:44.958Z,33.53
2018-05-09T21:29:11.235Z,26.90
2018-05-09T21:31:37.513Z,28.57
2018-05-09T21:34:03.807Z,27.23
2018-05-09T21:36:30.137Z,27.50
2018-05-09T21:38:56.373Z,30.87
2018-05-09T21:41:22.637Z,25.63
2018-05-09T21:43:50.367Z,26.17
2018-05-09T21:46:16.612Z,26.60
2018-05-09T21:48:42.862Z,27.00
2018-05-09T21:51:09.071Z,27.23
2018-05-09T21:53:35.380Z,29.83
2018-05-09T21:56:03.403Z,24.97
2018-05-09T21:58:29.710Z,29.47
2018-05-09T22:00:55.958Z,26.63
2018-05-09T22:03:22.936Z,27.10
2018-05-09T22:05:49.209Z,26.17
2018-05-09T22:08:15.630Z,27.67
2018-05-09T22:10:41.986Z,31.73
2018-05-09T22:13:08.310Z,29.20
2018-05-09T22:15:34.596Z,28.03
2018-05-09T22:18:00.862Z,29.53
2018-05-09T22:20:27.133Z,31.20
2018-05-09T22:22:53.369Z,29.10
2018-05-09T22:25:19.655Z,29.63
2018-05-09T22:27:45.870Z,32.50
2018-05-09T22:30:12.099Z,37.07
2018-05-09T22:32:38.396Z,32.17
2018-05-09T22:35:04.693Z,32.70
2018-05-09T22:37:31.728Z,36.50
2018-05-09T22:39:58.729Z,38.87
2018-05-09T22:42:25.241Z,35.57
2018-05-09T22:44:53.834Z,40.93
2018-05-09T22:47:20.059Z,38.43
2018-05-09T22:49:46.301Z,37.97
2018-05-09T22:52:12.625Z,38.57
2018-05-09T22:54:38.861Z,39.50
2018-05-09T22:57:05.084Z,39.47
2018-05-09T22:59:31.324Z,42.40
2018-05-09T23:01:57.540Z,45.20
2018-05-09T23:04:23.791Z,41.40
2018-05-09T23:06:50.023Z,43.10
2018-05-09T23:09:16.345Z,42.93
2018-05-09T23:11:42.588Z,42.97
2018-05-09T23:14:09.564Z,42.40
2018-05-09T23:16:35.808Z,47.27
2018-05-09T23:19:02.058Z,44.80
2018-05-09T23:21:28.363Z,43.07
2018-05-09T23:23:54.696Z,43.60
2018-05-09T23:26:21.973Z,41.50
2018-05-09T23:28:48.250Z,41.20
2018-05-09T23:31:14.506Z,41.37
2018-05-09T23:33:40.727Z,43.20
2018-05-09T23:36:07.906Z,44.27
2018-05-09T23:38:34.161Z,44.17
2018-05-09T23:41:00.392Z,42.97
2018-05-09T23:43:28.100Z,42.60
2018-05-09T23:45:54.372Z,41.63
2018-05-09T23:48:20.935Z,44.33
2018-05-09T23:50:47.247Z,44.40
2018-05-09T23:53:13.469Z,43.30
2018-05-09T23:55:39.770Z,42.77
2018-05-09T23:58:06.707Z,41.70
